Terminal Aerodrome Forecast
Issued by NWS

Home | Current Version | Previous Version | Text Only | Print | Product List | Glossary On
Versions: 1 2 3 4 5 6 7 8 9 10 11 12 13 14 15 16 17 18 19 20 21 22 23 24 25 26
947
FTUS44 KFWD 221502 AAB
TAFAFW
TAF AMD
KAFW 221502Z 2215/2312 30018G28KT P6SM SCT022
      TEMPO 2215/2217 BKN022
     FM221700 33024G34KT P6SM FEW025
     FM230100 32015KT P6SM SKC=

USA.gov is the U.S. government's official web portal to all federal, state and local government web resources and services.